Time;durP1;ratioP1;P1;durP2;ratioP2;P2;SDS_P1;SDS_P2;PMS_P1;PMS_P2;Temp;Humidity;BMP_temperature;BMP_pressure;BME280_temperature;BME280_humidity;BME280_pressure;Samples;Min_cycle;Max_cycle;Signal;HPM_P1;HPM_P2
2021/12/22 00:00:32;;;;;;;3.47;2.03;;;;;;;-7.96;90.92;92969.56;4882458;29;20221;-73
2021/12/22 00:02:59;;;;;;;1.17;1.17;;;;;;;-8.10;91.41;92953.59;4882958;29;20285;-73
2021/12/22 00:05:30;;;;;;;1.00;1.00;;;;;;;-7.98;90.23;92971.13;4881782;29;20684;-73
2021/12/22 00:07:59;;;;;;;2.03;1.80;;;;;;;-8.09;91.36;92958.53;4882969;29;20232;-73
2021/12/22 00:10:27;;;;;;;1.00;1.00;;;;;;;-8.08;90.74;92962.66;4881864;29;20559;-73
2021/12/22 00:12:54;;;;;;;1.03;1.03;;;;;;;-8.18;90.35;92945.19;4882811;29;20708;-73
2021/12/22 00:15:22;;;;;;;1.07;1.07;;;;;;;-8.39;89.42;92916.78;4882194;29;20585;-73
2021/12/22 00:17:49;;;;;;;1.20;1.20;;;;;;;-8.71;87.92;92850.44;4882793;29;20475;-73
2021/12/22 00:20:17;;;;;;;0.70;0.70;;;;;;;-8.40;86.19;92922.50;4882103;29;20682;-73
2021/12/22 00:22:44;;;;;;;1.03;0.93;;;;;;;-8.47;88.44;92905.94;4881759;29;20576;-73
2021/12/22 00:25:14;;;;;;;1.47;1.07;;;;;;;-8.33;89.59;92945.53;4882124;29;20226;-73
2021/12/22 00:27:43;;;;;;;0.80;0.80;;;;;;;-8.22;88.68;92958.09;4881880;29;20480;-73
2021/12/22 00:30:11;;;;;;;0.80;0.80;;;;;;;-8.02;87.08;92981.63;4881245;29;20724;-73
2021/12/22 00:32:40;;;;;;;0.93;0.93;;;;;;;-8.27;87.30;92947.31;4881850;29;20621;-73
2021/12/22 00:35:09;;;;;;;1.07;1.07;;;;;;;-8.33;88.44;92950.44;4882484;29;20626;-73
2021/12/22 00:37:36;;;;;;;3.30;2.10;;;;;;;-8.36;89.36;92965.06;4881977;29;20514;-73
2021/12/22 00:40:06;;;;;;;2.53;1.00;;;;;;;-8.21;87.31;92987.56;4882455;29;20206;-73
2021/12/22 00:42:35;;;;;;;0.60;0.60;;;;;;;-8.24;88.92;92972.78;4880485;29;20216;-73
2021/12/22 00:45:02;;;;;;;0.97;0.97;;;;;;;-8.48;89.75;92958.13;4881063;29;20610;-73
2021/12/22 00:47:31;;;;;;;1.10;1.10;;;;;;;-8.47;89.90;92971.22;4881538;29;20241;-73
2021/12/22 00:49:59;;;;;;;0.60;0.60;;;;;;;-8.41;88.34;92982.06;4881187;29;20575;-73
2021/12/22 00:52:27;;;;;;;0.80;0.80;;;;;;;-8.26;87.59;92981.69;4881962;29;20562;-73
2021/12/22 00:54:54;;;;;;;0.70;0.70;;;;;;;-8.34;89.06;92982.25;4881353;29;20609;-73
2021/12/22 00:57:22;;;;;;;0.67;0.67;;;;;;;-8.62;89.69;92961.78;4880591;29;20210;-73
2021/12/22 00:59:51;;;;;;;1.20;1.10;;;;;;;-8.36;88.61;93000.97;4880969;29;20221;-73
2021/12/22 01:02:20;;;;;;;0.70;0.70;;;;;;;-8.67;88.28;92955.84;4881332;29;20651;-73
2021/12/22 01:04:47;;;;;;;0.67;0.67;;;;;;;-8.27;86.44;93004.50;4881178;29;20205;-73
2021/12/22 01:07:15;;;;;;;0.80;0.80;;;;;;;-8.35;86.37;92988.78;4880417;29;20202;-73
2021/12/22 01:09:43;;;;;;;0.70;0.70;;;;;;;-8.29;86.99;92998.75;4881582;29;20469;-73
2021/12/22 01:12:13;;;;;;;2.10;1.47;;;;;;;-8.25;86.48;92998.03;4880865;29;20574;-74
2021/12/22 01:14:41;;;;;;;0.77;0.77;;;;;;;-8.26;85.83;92993.09;4880773;29;20579;-73
2021/12/22 01:17:13;;;;;;;1.53;1.53;;;;;;;-8.38;87.22;92994.38;4881310;29;20557;-73
2021/12/22 01:19:47;;;;;;;1.17;1.17;;;;;;;-8.49;88.26;92992.38;4880729;29;20217;-74
2021/12/22 01:22:28;;;;;;;0.80;0.80;;;;;;;-8.61;87.75;92987.06;4881190;29;20539;-73
2021/12/22 01:25:02;;;;;;;0.80;0.80;;;;;;;-8.75;88.29;92971.94;4880705;29;20579;-73
2021/12/22 01:27:33;;;;;;;0.97;0.97;;;;;;;-8.58;88.57;92977.38;4880785;29;20493;-73
2021/12/22 01:30:02;;;;;;;0.90;0.90;;;;;;;-8.52;88.22;92972.69;4880823;29;20545;-73
2021/12/22 01:32:31;;;;;;;0.90;0.90;;;;;;;-8.55;86.85;92957.88;4881288;29;20599;-73
2021/12/22 01:34:58;;;;;;;0.83;0.83;;;;;;;-8.39;86.58;92987.81;4880959;29;20588;-73
2021/12/22 01:37:25;;;;;;;0.50;0.50;;;;;;;-8.36;85.80;92994.44;4880976;29;20559;-73
2021/12/22 01:39:55;;;;;;;0.80;0.80;;;;;;;-8.29;85.49;92991.38;4880691;29;20592;-73
2021/12/22 01:42:22;;;;;;;1.43;1.43;;;;;;;-8.73;85.78;92928.72;4880500;29;20598;-73
2021/12/22 01:45:01;;;;;;;1.00;1.00;;;;;;;-8.48;86.69;92982.63;4880592;29;20475;-73
2021/12/22 01:50:17;;;;;;;0.67;0.67;;;;;;;-8.70;86.55;92958.22;4880534;29;20487;-73
2021/12/22 01:52:45;;;;;;;1.03;1.03;;;;;;;-8.49;85.59;92975.22;4880137;29;20238;-73
2021/12/22 01:55:26;;;;;;;0.80;0.80;;;;;;;-8.52;84.90;92963.72;4881271;29;20212;-73
2021/12/22 01:57:53;;;;;;;1.07;1.07;;;;;;;-8.50;84.68;92971.09;4881255;29;20220;-73
2021/12/22 02:00:24;;;;;;;0.80;0.80;;;;;;;-8.89;85.34;92898.03;4881131;29;20194;-73
2021/12/22 02:02:56;;;;;;;0.70;0.70;;;;;;;-8.41;84.86;92972.25;4881434;29;20289;-73
2021/12/22 02:05:24;;;;;;;1.13;1.13;;;;;;;-8.58;85.38;92946.38;4880146;29;20561;-73
2021/12/22 02:08:01;;;;;;;1.27;1.27;;;;;;;-8.57;84.30;92979.88;4880345;29;20559;-73
2021/12/22 02:10:45;;;;;;;0.80;0.80;;;;;;;-8.62;84.29;92966.66;4880234;29;20500;-73
2021/12/22 02:13:16;;;;;;;0.80;0.80;;;;;;;-8.59;84.51;92961.03;4880048;29;20603;-73
2021/12/22 02:15:44;;;;;;;0.97;0.97;;;;;;;-8.75;84.90;92940.09;4880179;29;20472;-73
2021/12/22 02:18:18;;;;;;;0.80;0.80;;;;;;;-8.56;85.28;92973.38;4880783;29;20289;-73
2021/12/22 02:20:50;;;;;;;1.13;1.13;;;;;;;-8.99;84.86;92912.34;4879812;29;20201;-73
2021/12/22 02:23:18;;;;;;;1.37;1.37;;;;;;;-8.70;85.62;92962.28;4879971;29;20610;-73
2021/12/22 02:25:53;;;;;;;2.20;2.10;;;;;;;-8.67;86.56;92975.44;4880028;29;20282;-73
2021/12/22 02:28:23;;;;;;;1.20;1.20;;;;;;;-8.72;86.45;92983.41;4881018;29;20202;-73
2021/12/22 02:30:52;;;;;;;1.97;1.97;;;;;;;-8.83;86.98;92983.06;4880907;29;20271;-73
2021/12/22 02:33:24;;;;;;;0.80;0.80;;;;;;;-9.05;88.89;92958.63;4879976;29;20516;-73
2021/12/22 02:36:07;;;;;;;1.37;1.37;;;;;;;-8.82;88.57;92983.13;4880594;29;20198;-73
2021/12/22 02:38:37;;;;;;;2.77;1.60;;;;;;;-8.77;87.44;92980.81;4880988;29;20585;-73
2021/12/22 02:41:07;;;;;;;1.63;1.63;;;;;;;-8.87;88.56;92974.78;4880127;29;20201;-73
2021/12/22 02:43:35;;;;;;;0.93;0.93;;;;;;;-9.00;88.37;92950.66;4879717;29;20464;-73
2021/12/22 02:46:02;;;;;;;1.00;1.00;;;;;;;-8.99;88.19;92957.22;4879644;29;20519;-73
2021/12/22 02:48:31;;;;;;;0.90;0.90;;;;;;;-8.98;87.50;92984.97;4879562;29;20447;-73
2021/12/22 02:51:02;;;;;;;1.00;1.00;;;;;;;-9.01;86.73;92980.81;4879650;29;20290;-73
2021/12/22 02:53:38;;;;;;;1.23;1.23;;;;;;;-9.20;86.63;92965.44;4880720;29;20595;-73
2021/12/22 02:56:16;;;;;;;0.70;0.70;;;;;;;-8.97;88.09;92984.22;4880353;29;20571;-73
2021/12/22 02:58:56;;;;;;;1.20;1.20;;;;;;;-9.15;88.18;92977.06;4879398;29;20774;-73
2021/12/22 03:01:52;;;;;;;1.23;1.23;;;;;;;-9.11;87.67;92977.97;4875717;29;20202;-73
2021/12/22 03:04:21;;;;;;;0.80;0.80;;;;;;;-9.18;87.75;92952.47;4863490;29;20204;-73
2021/12/22 03:06:55;;;;;;;0.60;0.60;;;;;;;-9.52;87.76;92935.78;4876623;29;20594;-73
2021/12/22 03:09:27;;;;;;;1.43;1.43;;;;;;;-9.58;89.10;92924.97;4873358;29;20589;-73
2021/12/22 03:11:56;;;;;;;0.67;0.67;;;;;;;-9.29;87.16;92969.22;4873845;29;20274;-73
2021/12/22 03:14:24;;;;;;;1.00;1.00;;;;;;;-9.47;86.72;92936.78;4876992;29;20628;-73
2021/12/22 03:16:52;;;;;;;0.70;0.70;;;;;;;-9.51;85.95;92927.66;4872340;29;20613;-73
2021/12/22 03:19:22;;;;;;;0.93;0.93;;;;;;;-9.25;87.70;92975.91;4871854;29;20615;-73
2021/12/22 03:21:58;;;;;;;0.70;0.70;;;;;;;-9.32;87.79;92991.13;4878819;29;20594;-74
2021/12/22 03:24:26;;;;;;;0.83;0.83;;;;;;;-9.41;87.98;92980.19;4876093;29;20584;-73
2021/12/22 03:26:53;;;;;;;0.70;0.70;;;;;;;-9.21;86.59;92998.84;4878469;29;20231;-73
2021/12/22 03:29:21;;;;;;;0.90;0.90;;;;;;;-9.24;87.23;92994.66;4878736;29;20573;-73
2021/12/22 03:31:49;;;;;;;0.80;0.80;;;;;;;-9.10;86.51;93000.06;4876375;29;20590;-73
2021/12/22 03:34:17;;;;;;;0.93;0.93;;;;;;;-9.18;86.60;93010.38;4883369;29;20516;-73
2021/12/22 03:36:44;;;;;;;1.17;1.17;;;;;;;-9.11;86.03;93008.19;4882886;29;20513;-73
2021/12/22 03:39:15;;;;;;;0.70;0.70;;;;;;;-9.33;85.51;92971.50;4883080;29;20606;-73
2021/12/22 03:41:44;;;;;;;0.70;0.70;;;;;;;-9.46;84.12;92955.56;4882137;29;20654;-73
2021/12/22 03:44:12;;;;;;;0.80;0.80;;;;;;;-9.03;84.39;93014.19;4882893;29;20556;-73
2021/12/22 03:46:39;;;;;;;1.20;1.20;;;;;;;-9.11;84.06;93005.72;4882476;29;20209;-73
2021/12/22 03:49:09;;;;;;;0.80;0.80;;;;;;;-9.03;83.79;93008.47;4883097;29;20477;-73
2021/12/22 03:51:37;;;;;;;0.90;0.90;;;;;;;-9.06;84.41;93010.78;4882319;29;20602;-73
2021/12/22 03:54:06;;;;;;;1.23;1.23;;;;;;;-9.18;84.81;92989.16;4882171;29;20528;-74
2021/12/22 03:56:35;;;;;;;0.70;0.70;;;;;;;-9.48;83.35;92956.28;4883383;29;20593;-73
2021/12/22 03:59:03;;;;;;;1.03;1.03;;;;;;;-9.42;86.04;93007.88;4882121;29;20506;-73
2021/12/22 04:01:31;;;;;;;1.20;1.20;;;;;;;-9.69;85.79;92956.34;4882744;29;20223;-73
2021/12/22 04:04:03;;;;;;;1.40;1.30;;;;;;;-9.57;84.88;92971.44;4882135;29;20562;-73
2021/12/22 04:06:31;;;;;;;1.93;1.83;;;;;;;-9.61;84.88;92945.22;4882969;29;20543;-73
2021/12/22 04:08:58;;;;;;;1.47;1.47;;;;;;;-9.20;84.95;93012.75;4882675;29;20213;-73
2021/12/22 04:11:25;;;;;;;1.97;1.43;;;;;;;-9.25;84.46;93007.69;4882313;29;20558;-74
2021/12/22 04:13:54;;;;;;;2.10;1.57;;;;;;;-9.19;84.79;93011.16;4883688;29;20508;-73
2021/12/22 04:16:21;;;;;;;1.33;1.33;;;;;;;-9.36;85.05;92998.31;4882473;29;20227;-73
2021/12/22 04:18:49;;;;;;;1.07;1.07;;;;;;;-9.60;85.27;92961.56;4881784;29;20594;-73
2021/12/22 04:21:16;;;;;;;1.07;1.07;;;;;;;-9.55;86.58;92977.22;4881789;29;20646;-73
2021/12/22 04:23:44;;;;;;;2.93;2.80;;;;;;;-10.24;87.19;92893.25;4881496;29;20556;-74
2021/12/22 04:26:12;;;;;;;3.40;2.03;;;;;;;-10.35;87.40;92894.44;4881890;29;20206;-73
2021/12/22 04:28:40;;;;;;;0.63;0.63;;;;;;;-9.76;87.15;93011.50;4881080;29;20581;-73
2021/12/22 04:31:09;;;;;;;1.27;1.27;;;;;;;-9.90;87.41;93015.00;4881241;29;20672;-73
2021/12/22 04:33:36;;;;;;;3.17;2.67;;;;;;;-10.29;87.54;92954.88;4881628;29;20228;-74
2021/12/22 04:36:05;;;;;;;2.60;2.50;;;;;;;-10.43;87.23;92909.59;4882115;29;20200;-73
2021/12/22 04:38:32;;;;;;;10.63;2.93;;;;;;;-10.15;87.54;92954.63;4881295;29;20668;-73
2021/12/22 04:41:00;;;;;;;3.93;1.67;;;;;;;-9.67;86.57;93006.09;4882324;29;20560;-73
2021/12/22 04:43:28;;;;;;;1.60;1.50;;;;;;;-9.58;86.23;93006.47;4881646;29;20579;-73
2021/12/22 04:45:55;;;;;;;1.33;1.33;;;;;;;-9.73;85.46;92972.50;4881671;29;20553;-73
2021/12/22 04:48:24;;;;;;;1.63;1.53;;;;;;;-9.57;85.28;92988.56;4881612;29;20680;-73
2021/12/22 04:50:52;;;;;;;1.53;1.53;;;;;;;-9.29;84.74;93027.91;4881408;29;20654;-73
2021/12/22 04:53:23;;;;;;;2.33;2.23;;;;;;;-9.37;84.65;93038.22;4881780;29;20496;-73
2021/12/22 04:55:50;;;;;;;1.00;1.00;;;;;;;-9.47;85.45;93006.88;4882257;29;20516;-73
2021/12/22 04:58:18;;;;;;;1.57;1.57;;;;;;;-9.96;87.33;92956.13;4881813;29;20576;-74
2021/12/22 05:00:45;;;;;;;1.13;1.13;;;;;;;-9.75;87.58;92997.66;4878962;29;20646;-73
2021/12/22 05:03:13;;;;;;;1.73;1.63;;;;;;;-9.85;87.75;92974.47;4880613;29;20568;-73
2021/12/22 05:05:42;;;;;;;0.90;0.90;;;;;;;-9.81;86.04;92965.66;4881216;29;20319;-73
2021/12/22 05:08:09;;;;;;;1.67;1.67;;;;;;;-9.61;85.50;92999.00;4880401;29;20308;-73
2021/12/22 05:10:37;;;;;;;2.13;2.03;;;;;;;-9.71;86.11;92988.06;4885616;28;20495;-73
2021/12/22 05:13:04;;;;;;;0.80;0.80;;;;;;;-10.07;86.27;92955.72;4900518;28;20473;-73
2021/12/22 05:15:37;;;;;;;4.93;2.73;;;;;;;-9.84;86.32;93009.53;4899602;28;20615;-73
2021/12/22 05:18:22;;;;;;;0.77;0.77;;;;;;;-9.48;87.03;93007.63;4884926;28;20564;-73
2021/12/22 05:20:55;;;;;;;0.90;0.90;;;;;;;-9.46;85.29;92988.97;4876210;29;20200;-74
2021/12/22 05:23:25;;;;;;;0.80;0.80;;;;;;;-9.63;84.38;92966.31;4869709;29;20583;-75
2021/12/22 05:25:54;;;;;;;0.90;0.90;;;;;;;-9.31;84.03;93006.63;4867543;29;20647;-75
2021/12/22 05:28:25;;;;;;;3.10;3.00;;;;;;;-9.24;85.85;93023.22;4872892;29;20555;-75
2021/12/22 05:30:56;;;;;;;2.10;2.10;;;;;;;-9.26;85.05;93013.38;4875297;29;20462;-74
2021/12/22 05:33:26;;;;;;;2.40;2.20;;;;;;;-9.30;84.06;93015.66;4872034;29;20497;-77
2021/12/22 05:35:59;;;;;;;5.43;3.87;;;;;;;-9.24;84.57;93036.25;4877250;29;20225;-74
2021/12/22 05:38:32;;;;;;;2.50;2.50;;;;;;;-9.29;84.33;93040.13;4868240;29;20560;-73
2021/12/22 05:41:08;;;;;;;7.80;4.43;;;;;;;-9.45;83.66;93032.19;4873438;29;20506;-73
2021/12/22 05:43:37;;;;;;;2.00;2.00;;;;;;;-9.98;83.13;92952.00;4876509;29;20599;-75
2021/12/22 05:46:06;;;;;;;5.63;5.13;;;;;;;-9.33;83.02;93065.28;4872873;29;20304;-75
2021/12/22 05:48:35;;;;;;;2.90;2.83;;;;;;;-9.72;83.41;93007.53;4864477;29;20269;-76
2021/12/22 05:51:08;;;;;;;8.50;3.87;;;;;;;-9.58;83.71;93032.53;4873755;29;20494;-75
2021/12/22 05:53:36;;;;;;;3.03;3.03;;;;;;;-9.83;83.17;93001.41;4871809;29;20642;-73
2021/12/22 05:56:06;;;;;;;8.37;4.07;;;;;;;-9.55;84.04;93059.50;4872483;29;20595;-76
2021/12/22 05:58:33;;;;;;;3.67;3.37;;;;;;;-9.56;84.95;93061.13;4871517;29;20493;-73
2021/12/22 06:01:01;;;;;;;3.87;3.67;;;;;;;-10.33;86.65;92958.00;4877454;29;20455;-73
2021/12/22 06:03:30;;;;;;;7.87;3.33;;;;;;;-10.00;86.91;93007.25;4868963;29;20210;-73
2021/12/22 06:06:00;;;;;;;5.60;2.87;;;;;;;-10.38;88.34;92949.66;4871212;29;20668;-74
2021/12/22 06:08:34;;;;;;;13.40;8.67;;;;;;;-9.63;87.98;93051.06;4871960;29;20594;-74
2021/12/22 06:11:05;;;;;;;3.37;3.23;;;;;;;-9.57;86.78;93031.72;4876726;29;20480;-75
2021/12/22 06:13:40;;;;;;;6.60;6.27;;;;;;;-9.72;86.92;92992.88;4868187;29;20680;-75
2021/12/22 06:16:11;;;;;;;7.50;6.63;;;;;;;-9.44;86.53;93021.63;4870410;29;20707;-75
2021/12/22 06:18:43;;;;;;;4.53;4.17;;;;;;;-9.55;86.71;93011.47;4870727;29;20204;-76
2021/12/22 06:21:17;;;;;;;15.87;5.90;;;;;;;-9.19;86.38;93064.97;4874469;29;20545;-76
2021/12/22 06:23:47;;;;;;;9.87;5.30;;;;;;;-9.25;86.03;93044.38;4867542;29;20648;-78
2021/12/22 06:26:15;;;;;;;10.60;4.83;;;;;;;-9.18;85.29;93054.41;4875121;29;20567;-77
2021/12/22 06:28:42;;;;;;;9.50;6.07;;;;;;;-9.10;85.29;93057.94;4869929;29;20213;-76
2021/12/22 06:31:10;;;;;;;8.93;6.90;;;;;;;-9.59;84.40;92986.84;4877217;29;20582;-76
2021/12/22 06:33:37;;;;;;;4.97;4.87;;;;;;;-9.43;84.56;93007.03;4872347;29;20605;-74
2021/12/22 06:36:05;;;;;;;3.67;3.60;;;;;;;-8.99;83.88;93077.13;4875475;29;20604;-73
2021/12/22 06:38:33;;;;;;;5.87;5.30;;;;;;;-8.98;84.29;93073.06;4869973;29;20597;-74
2021/12/22 06:41:02;;;;;;;6.70;6.20;;;;;;;-9.02;83.42;93081.94;4870090;29;20605;-75
2021/12/22 06:43:30;;;;;;;8.33;5.23;;;;;;;-9.00;83.13;93079.50;4875737;29;20511;-76
2021/12/22 06:45:57;;;;;;;2.33;2.33;;;;;;;-9.22;84.94;93044.50;4878487;29;20594;-74
2021/12/22 06:48:25;;;;;;;3.67;3.57;;;;;;;-9.01;83.81;93066.44;4877157;29;20560;-74
2021/12/22 06:50:53;;;;;;;7.30;4.27;;;;;;;-9.43;83.80;92984.19;4867701;29;20269;-75
2021/12/22 06:53:20;;;;;;;4.90;2.63;;;;;;;-8.94;85.03;93048.75;4875310;29;20588;-75
2021/12/22 06:55:51;;;;;;;2.07;1.93;;;;;;;-8.84;85.64;93070.31;4877768;29;20229;-75
2021/12/22 06:58:19;;;;;;;3.80;3.60;;;;;;;-9.28;86.99;92995.34;4876134;29;20591;-77
2021/12/22 07:00:47;;;;;;;3.70;3.00;;;;;;;-8.72;86.87;93051.97;4876923;29;20523;-73
2021/12/22 07:03:16;;;;;;;2.00;2.00;;;;;;;-8.53;85.40;93067.34;4874615;29;20232;-73
2021/12/22 07:05:44;;;;;;;2.20;2.17;;;;;;;-8.95;85.37;92995.69;4876475;29;20281;-72
2021/12/22 07:08:11;;;;;;;3.10;3.03;;;;;;;-8.40;84.19;93062.09;4880974;29;20588;-72
2021/12/22 07:10:39;;;;;;;3.73;3.63;;;;;;;-8.81;83.49;92984.78;4883133;29;20210;-72
2021/12/22 07:13:07;;;;;;;4.30;3.17;;;;;;;-8.16;84.09;93071.00;4875660;29;20498;-73
2021/12/22 07:15:36;;;;;;;2.93;2.67;;;;;;;-8.69;83.33;92984.38;4875925;29;20607;-73
2021/12/22 07:18:03;;;;;;;3.20;3.10;;;;;;;-8.18;83.26;93062.78;4875582;29;20581;-74
2021/12/22 07:20:31;;;;;;;4.03;3.67;;;;;;;-8.05;84.24;93074.63;4867660;29;20460;-73
2021/12/22 07:22:58;;;;;;;3.30;3.20;;;;;;;-7.97;84.56;93078.19;4875299;29;20530;-74
2021/12/22 07:25:26;;;;;;;4.03;3.80;;;;;;;-8.17;83.53;93038.34;4878950;29;20204;-74
2021/12/22 07:27:53;;;;;;;4.00;3.80;;;;;;;-7.95;83.72;93083.97;4878640;29;20622;-74
2021/12/22 07:30:21;;;;;;;4.53;4.23;;;;;;;-7.98;84.76;93059.34;4878967;29;20621;-74
2021/12/22 07:32:51;;;;;;;3.47;3.37;;;;;;;-7.82;83.71;93082.75;4874021;29;20285;-77
2021/12/22 07:35:25;;;;;;;2.10;2.10;;;;;;;-7.82;83.65;93078.69;4876541;29;20657;-75
2021/12/22 07:38:07;;;;;;;3.10;2.90;;;;;;;-7.75;83.44;93080.53;4874922;29;20541;-74
2021/12/22 07:40:36;;;;;;;2.40;2.33;;;;;;;-7.90;83.15;93062.91;4876070;29;20447;-75
2021/12/22 07:43:04;;;;;;;2.67;2.57;;;;;;;-7.87;83.07;93062.16;4872107;29;20681;-74
2021/12/22 07:45:32;;;;;;;2.13;2.13;;;;;;;-8.34;82.65;92992.06;4872304;29;20635;-74
2021/12/22 07:48:01;;;;;;;2.57;2.43;;;;;;;-7.72;83.34;93077.38;4870171;29;20539;-76
2021/12/22 07:50:28;;;;;;;2.03;2.03;;;;;;;-7.67;83.47;93074.28;4869555;29;20580;-75
2021/12/22 07:52:56;;;;;;;2.70;2.57;;;;;;;-7.96;84.30;93013.69;4871773;29;20500;-75
2021/12/22 07:55:23;;;;;;;1.33;1.33;;;;;;;-7.61;84.39;93054.84;4873430;29;20645;-74
2021/12/22 07:57:51;;;;;;;1.30;1.30;;;;;;;-7.62;83.95;93045.00;4873333;29;20629;-75
2021/12/22 08:00:19;;;;;;;5.77;1.53;;;;;;;-7.72;85.48;93026.72;4871759;29;20564;-75
2021/12/22 08:02:46;;;;;;;1.63;1.13;;;;;;;-7.54;84.40;93041.97;4872588;29;20590;-74
2021/12/22 08:05:15;;;;;;;2.00;2.00;;;;;;;-7.60;84.32;93012.34;4875647;29;20599;-75
2021/12/22 08:07:43;;;;;;;1.13;1.13;;;;;;;-7.44;84.68;93035.75;4875591;29;20202;-74
2021/12/22 08:10:11;;;;;;;1.20;1.20;;;;;;;-7.09;84.41;93071.13;4878338;29;20568;-74
2021/12/22 08:12:38;;;;;;;1.73;1.73;;;;;;;-7.00;83.91;93071.41;4871189;29;20696;-73
2021/12/22 08:15:07;;;;;;;1.97;1.87;;;;;;;-6.89;83.78;93069.25;4871051;29;20603;-74
2021/12/22 08:17:34;;;;;;;5.50;4.60;;;;;;;-6.82;83.79;93071.13;4880198;29;20638;-74
2021/12/22 08:20:02;;;;;;;5.10;4.80;;;;;;;-6.78;83.34;93065.50;4875800;29;20504;-74
2021/12/22 08:22:31;;;;;;;5.17;4.87;;;;;;;-6.69;82.52;93073.09;4876850;29;20654;-74
2021/12/22 08:24:58;;;;;;;3.30;3.20;;;;;;;-6.65;82.34;93069.97;4875272;29;20475;-74
2021/12/22 08:27:25;;;;;;;4.70;4.30;;;;;;;-6.66;82.01;93082.19;4874571;29;20565;-74
2021/12/22 08:29:53;;;;;;;4.40;4.10;;;;;;;-6.66;82.87;93060.09;4872654;29;20492;-74
2021/12/22 08:32:21;;;;;;;3.83;3.63;;;;;;;-6.56;82.64;93057.94;4867772;29;20199;-74
2021/12/22 08:34:53;;;;;;;2.70;2.60;;;;;;;-6.65;82.54;93013.47;4867996;29;20647;-74
2021/12/22 08:40:10;;;;;;;3.67;3.57;;;;;;;-6.21;81.22;93068.72;4875162;29;20512;-72
2021/12/22 08:42:38;;;;;;;6.07;5.77;;;;;;;-6.12;81.66;93068.94;4875537;29;20576;-72
2021/12/22 08:45:07;;;;;;;3.57;3.37;;;;;;;-6.13;81.04;93047.59;4873161;29;20660;-74
2021/12/22 08:47:34;;;;;;;3.80;3.70;;;;;;;-5.90;81.19;93060.47;4875373;29;20199;-74
2021/12/22 08:50:02;;;;;;;3.50;3.30;;;;;;;-5.79;80.98;93050.88;4876937;29;20583;-74
2021/12/22 08:52:30;;;;;;;2.77;2.67;;;;;;;-5.80;81.57;93032.81;4876195;29;20314;-74
2021/12/22 08:54:58;;;;;;;8.40;2.60;;;;;;;-5.72;82.06;93050.22;4872565;29;20511;-75
2021/12/22 08:57:26;;;;;;;5.50;2.77;;;;;;;-5.66;82.27;93025.78;4871870;29;20274;-74
2021/12/22 08:59:54;;;;;;;2.07;1.97;;;;;;;-5.32;82.48;93038.06;4873476;29;20475;-76
2021/12/22 09:02:23;;;;;;;2.13;2.03;;;;;;;-5.15;80.28;93033.50;4869253;29;20592;-74
2021/12/22 09:04:50;;;;;;;7.50;2.87;;;;;;;-5.03;78.83;93034.63;4866066;29;20572;-75
2021/12/22 09:07:17;;;;;;;3.43;3.13;;;;;;;-4.84;78.43;93057.16;4867538;29;20228;-74
2021/12/22 09:09:45;;;;;;;4.27;4.03;;;;;;;-4.74;77.86;93046.72;4873644;29;20598;-74
2021/12/22 09:12:12;;;;;;;6.27;5.40;;;;;;;-4.64;78.17;93049.41;4871663;29;20580;-75
2021/12/22 09:14:41;;;;;;;11.03;9.93;;;;;;;-4.54;77.38;93045.47;4870406;29;20239;-74
2021/12/22 09:17:08;;;;;;;5.13;4.60;;;;;;;-4.80;76.99;92994.84;4872039;29;20507;-75
2021/12/22 09:19:36;;;;;;;6.70;5.13;;;;;;;-4.47;77.08;93037.41;4878484;29;20661;-72
2021/12/22 09:22:04;;;;;;;4.43;4.23;;;;;;;-4.36;77.10;93032.69;4873833;29;20520;-73
2021/12/22 09:24:31;;;;;;;4.67;4.27;;;;;;;-4.29;76.62;93018.03;4849943;29;20493;-73
2021/12/22 09:26:59;;;;;;;2.73;2.63;;;;;;;-4.03;76.16;93037.41;4854810;29;20580;-72
2021/12/22 09:29:29;;;;;;;6.53;3.60;;;;;;;-3.91;76.66;93017.88;4852030;29;20576;-73
2021/12/22 09:31:58;;;;;;;9.40;8.70;;;;;;;-3.60;75.38;93043.88;4845529;29;20547;-73
2021/12/22 09:34:26;;;;;;;6.47;6.17;;;;;;;-3.50;74.54;93035.84;4851241;29;20242;-73
2021/12/22 09:36:54;;;;;;;8.40;6.80;;;;;;;-3.42;73.34;93027.75;4852760;29;20530;-73
2021/12/22 09:39:21;;;;;;;8.90;5.93;;;;;;;-3.43;73.47;92993.97;4857963;29;20587;-73
2021/12/22 09:41:49;;;;;;;3.83;3.73;;;;;;;-3.02;74.11;93011.03;4851660;29;20490;-73
2021/12/22 09:44:17;;;;;;;2.53;2.50;;;;;;;-2.80;72.78;93029.47;4848080;29;20486;-73
2021/12/22 09:46:45;;;;;;;5.53;5.13;;;;;;;-2.64;72.89;93016.47;4853121;29;20459;-72
2021/12/22 09:49:35;;;;;;;2.80;2.67;;;;;;;-2.56;71.89;93015.78;4856086;29;20606;-74
2021/12/22 09:54:56;;;;;;;1.63;1.63;;;;;;;-2.00;67.43;93019.69;4839510;29;20542;-72
2021/12/22 09:57:25;;;;;;;1.83;1.83;;;;;;;-1.83;66.18;93026.47;4851782;29;20612;-73
2021/12/22 09:59:54;;;;;;;2.20;2.10;;;;;;;-1.58;63.59;93044.91;4851037;29;20584;-72
2021/12/22 10:02:25;;;;;;;2.97;2.53;;;;;;;-1.52;64.17;92983.00;4852279;29;20514;-72
2021/12/22 10:04:55;;;;;;;1.70;1.60;;;;;;;-0.46;63.31;92990.28;4853175;29;20199;-73
2021/12/22 10:07:26;;;;;;;3.47;3.17;;;;;;;0.72;56.11;93030.31;4851991;29;20576;-73
2021/12/22 10:10:02;;;;;;;3.57;3.37;;;;;;;2.41;54.42;93065.59;4857059;29;20599;-72
2021/12/22 10:12:34;;;;;;;7.03;6.63;;;;;;;3.07;52.11;93080.97;4851940;29;20206;-74
2021/12/22 10:15:04;;;;;;;7.90;7.30;;;;;;;2.90;51.02;93075.28;4853345;29;20626;-73
2021/12/22 10:17:35;;;;;;;7.30;6.73;;;;;;;2.28;51.59;93054.03;4848379;29;20470;-72
2021/12/22 10:20:08;;;;;;;7.20;3.90;;;;;;;1.52;53.81;93013.66;4844810;29;20478;-72
2021/12/22 10:22:38;;;;;;;4.37;4.07;;;;;;;1.31;54.97;93029.44;4848923;29;20631;-72
2021/12/22 10:25:12;;;;;;;6.93;6.03;;;;;;;1.11;56.24;93008.75;4863112;29;20571;-73
2021/12/22 10:27:42;;;;;;;7.47;7.03;;;;;;;1.41;55.67;93003.69;4863767;29;20473;-73
2021/12/22 10:30:32;;;;;;;8.53;8.03;;;;;;;1.96;54.02;93006.00;4862485;29;20484;-73
2021/12/22 10:33:13;;;;;;;7.00;6.60;;;;;;;2.47;52.60;93018.19;4864056;29;20199;-73
2021/12/22 10:35:43;;;;;;;7.20;6.60;;;;;;;2.37;52.28;93006.59;4863197;29;20254;-72
2021/12/22 10:38:14;;;;;;;7.23;6.93;;;;;;;2.45;53.08;93009.91;4873704;29;20654;-73
2021/12/22 10:40:43;;;;;;;11.90;10.77;;;;;;;2.21;51.80;93029.13;4872682;29;20590;-72
2021/12/22 10:43:17;;;;;;;14.67;11.17;;;;;;;2.03;52.98;92996.00;4870197;29;20501;-72
2021/12/22 10:45:47;;;;;;;17.80;12.07;;;;;;;1.99;53.71;92986.88;4869372;29;20199;-72
2021/12/22 10:51:10;;;;;;;10.50;8.50;;;;;;;2.13;53.46;92984.34;4864220;29;20524;-73
2021/12/22 10:53:46;;;;;;;30.20;11.13;;;;;;;1.89;54.08;92979.47;4871811;29;20202;-73
2021/12/22 10:56:24;;;;;;;20.77;15.40;;;;;;;1.77;54.85;92957.94;4869567;29;20615;-73
2021/12/22 10:59:04;;;;;;;14.37;11.37;;;;;;;1.76;54.63;92967.88;4872605;29;20481;-72
2021/12/22 11:01:34;;;;;;;15.07;11.83;;;;;;;1.76;54.86;92957.94;4874294;29;20567;-71
2021/12/22 11:04:06;;;;;;;17.17;14.80;;;;;;;1.59;55.23;92948.03;4869306;29;20507;-72
2021/12/22 11:06:39;;;;;;;11.43;10.47;;;;;;;1.65;54.28;92930.59;4870306;29;20603;-73
2021/12/22 11:09:13;;;;;;;12.33;11.50;;;;;;;1.76;54.99;92946.31;4868992;29;20585;-73
2021/12/22 11:11:41;;;;;;;9.87;9.37;;;;;;;1.50;55.11;92919.03;4869784;29;20500;-73
2021/12/22 11:14:12;;;;;;;20.73;8.57;;;;;;;1.35;56.23;92928.25;4867633;29;20501;-73
2021/12/22 11:17:00;;;;;;;8.67;8.07;;;;;;;1.22;56.70;92928.28;4867945;29;20589;-73
2021/12/22 11:19:29;;;;;;;13.77;12.43;;;;;;;0.78;58.19;92923.41;4869221;29;20215;-72
2021/12/22 11:22:03;;;;;;;7.53;6.73;;;;;;;0.50;58.55;92906.84;4864560;29;20607;-74
2021/12/22 11:24:33;;;;;;;7.73;7.30;;;;;;;0.97;57.29;92909.25;4868202;29;20461;-72
2021/12/22 11:27:02;;;;;;;6.67;5.77;;;;;;;1.34;56.26;92939.00;4875748;29;20480;-72
2021/12/22 11:29:29;;;;;;;6.63;6.33;;;;;;;1.81;54.97;92933.81;4880540;29;20587;-73
2021/12/22 11:31:57;;;;;;;6.90;6.47;;;;;;;1.88;53.00;92962.84;4873012;29;20563;-74
2021/12/22 11:34:27;;;;;;;7.50;5.77;;;;;;;1.85;52.04;92967.88;4879546;29;20217;-74
2021/12/22 11:36:57;;;;;;;6.23;5.83;;;;;;;2.08;52.71;92961.09;4874066;29;20627;-73
2021/12/22 11:39:26;;;;;;;6.40;5.73;;;;;;;2.20;51.63;92963.50;4872696;29;20614;-73
2021/12/22 11:41:57;;;;;;;11.07;10.07;;;;;;;2.14;51.15;92935.31;4876996;29;20269;-74
2021/12/22 11:44:26;;;;;;;6.43;3.33;;;;;;;2.32;51.67;92943.50;4878527;29;20207;-72
2021/12/22 11:46:57;;;;;;;6.23;5.70;;;;;;;2.83;50.53;92958.91;4879418;29;20680;-73
2021/12/22 11:49:25;;;;;;;15.57;8.23;;;;;;;3.48;48.01;92949.97;4877777;29;20475;-75
2021/12/22 11:51:53;;;;;;;16.63;10.43;;;;;;;3.99;44.72;92969.34;4873676;29;20555;-74
2021/12/22 11:54:26;;;;;;;4.57;4.27;;;;;;;4.74;43.77;92984.13;4876737;29;20479;-74
2021/12/22 11:56:57;;;;;;;5.17;4.80;;;;;;;5.47;44.73;92992.94;4872268;29;20658;-74